sensor_id;sensor_type;location;lat;lon;timestamp;temperature;humidity
32139;DHT22;18644;48.700;9.210;2023-04-24T00:01:35;14.20;58.00
32139;DHT22;18644;48.700;9.210;2023-04-24T00:04:04;14.20;58.00
32139;DHT22;18644;48.700;9.210;2023-04-24T00:06:32;14.20;57.90
32139;DHT22;18644;48.700;9.210;2023-04-24T00:08:59;14.10;57.90
32139;DHT22;18644;48.700;9.210;2023-04-24T00:11:28;14.10;57.90
32139;DHT22;18644;48.700;9.210;2023-04-24T00:13:55;14.10;57.90
32139;DHT22;18644;48.700;9.210;2023-04-24T00:16:22;14.10;58.00
32139;DHT22;18644;48.700;9.210;2023-04-24T00:18:49;14.10;58.60
32139;DHT22;18644;48.700;9.210;2023-04-24T00:21:18;14.10;58.10
32139;DHT22;18644;48.700;9.210;2023-04-24T00:23:44;14.10;58.60
32139;DHT22;18644;48.700;9.210;2023-04-24T00:26:11;14.10;58.00
32139;DHT22;18644;48.700;9.210;2023-04-24T00:28:40;14.10;58.10
32139;DHT22;18644;48.700;9.210;2023-04-24T00:31:06;14.10;58.20
32139;DHT22;18644;48.700;9.210;2023-04-24T00:33:33;14.10;58.30
32139;DHT22;18644;48.700;9.210;2023-04-24T00:36:00;14.10;58.40
32139;DHT22;18644;48.700;9.210;2023-04-24T00:38:27;14.10;58.30
32139;DHT22;18644;48.700;9.210;2023-04-24T00:40:54;14.10;58.40
32139;DHT22;18644;48.700;9.210;2023-04-24T00:43:21;14.10;58.30
32139;DHT22;18644;48.700;9.210;2023-04-24T00:45:52;14.10;58.30
32139;DHT22;18644;48.700;9.210;2023-04-24T00:48:19;14.10;58.40
32139;DHT22;18644;48.700;9.210;2023-04-24T00:50:46;14.10;58.50
32139;DHT22;18644;48.700;9.210;2023-04-24T00:53:13;14.10;58.40
32139;DHT22;18644;48.700;9.210;2023-04-24T00:55:40;14.10;58.50
32139;DHT22;18644;48.700;9.210;2023-04-24T00:58:07;14.10;58.50
32139;DHT22;18644;48.700;9.210;2023-04-24T01:00:34;14.10;58.50
32139;DHT22;18644;48.700;9.210;2023-04-24T01:03:04;14.10;58.50
32139;DHT22;18644;48.700;9.210;2023-04-24T01:05:31;14.10;58.60
32139;DHT22;18644;48.700;9.210;2023-04-24T01:07:59;14.10;58.60
32139;DHT22;18644;48.700;9.210;2023-04-24T01:10:27;14.10;58.60
32139;DHT22;18644;48.700;9.210;2023-04-24T01:12:56;14.10;58.70
32139;DHT22;18644;48.700;9.210;2023-04-24T01:15:24;14.20;58.70
32139;DHT22;18644;48.700;9.210;2023-04-24T01:17:51;14.20;58.70
32139;DHT22;18644;48.700;9.210;2023-04-24T01:20:19;14.20;58.60
32139;DHT22;18644;48.700;9.210;2023-04-24T01:22:48;14.20;58.70
32139;DHT22;18644;48.700;9.210;2023-04-24T01:25:15;14.20;58.70
32139;DHT22;18644;48.700;9.210;2023-04-24T01:27:42;14.20;58.70
32139;DHT22;18644;48.700;9.210;2023-04-24T01:30:10;14.20;58.70
32139;DHT22;18644;48.700;9.210;2023-04-24T01:32:39;14.20;58.80
32139;DHT22;18644;48.700;9.210;2023-04-24T01:35:07;14.20;58.70
32139;DHT22;18644;48.700;9.210;2023-04-24T01:37:34;14.20;58.70
32139;DHT22;18644;48.700;9.210;2023-04-24T01:40:04;14.20;58.60
32139;DHT22;18644;48.700;9.210;2023-04-24T01:42:33;14.20;58.50
32139;DHT22;18644;48.700;9.210;2023-04-24T01:45:02;14.20;58.50
32139;DHT22;18644;48.700;9.210;2023-04-24T01:47:31;14.20;58.50
32139;DHT22;18644;48.700;9.210;2023-04-24T01:49:58;14.20;58.40
32139;DHT22;18644;48.700;9.210;2023-04-24T01:52:25;14.20;58.30
32139;DHT22;18644;48.700;9.210;2023-04-24T01:54:54;14.20;58.30
32139;DHT22;18644;48.700;9.210;2023-04-24T01:57:22;14.10;58.30
32139;DHT22;18644;48.700;9.210;2023-04-24T01:59:55;14.10;58.40
32139;DHT22;18644;48.700;9.210;2023-04-24T02:05:40;14.10;58.50
32139;DHT22;18644;48.700;9.210;2023-04-24T02:08:38;14.10;58.70
32139;DHT22;18644;48.700;9.210;2023-04-24T02:12:09;14.10;58.80
32139;DHT22;18644;48.700;9.210;2023-04-24T02:15:16;14.00;58.80
32139;DHT22;18644;48.700;9.210;2023-04-24T02:17:45;14.00;58.60
32139;DHT22;18644;48.700;9.210;2023-04-24T02:20:12;14.00;58.70
32139;DHT22;18644;48.700;9.210;2023-04-24T02:22:39;14.00;58.70
32139;DHT22;18644;48.700;9.210;2023-04-24T02:25:06;14.00;58.80
32139;DHT22;18644;48.700;9.210;2023-04-24T02:27:34;14.00;58.90
32139;DHT22;18644;48.700;9.210;2023-04-24T02:30:00;14.00;58.90
32139;DHT22;18644;48.700;9.210;2023-04-24T02:32:29;14.00;59.00
32139;DHT22;18644;48.700;9.210;2023-04-24T02:34:57;14.00;59.00
32139;DHT22;18644;48.700;9.210;2023-04-24T02:37:24;13.90;59.00
32139;DHT22;18644;48.700;9.210;2023-04-24T02:39:51;13.90;59.10
32139;DHT22;18644;48.700;9.210;2023-04-24T02:42:18;13.90;59.20
32139;DHT22;18644;48.700;9.210;2023-04-24T02:44:45;13.90;59.30
32139;DHT22;18644;48.700;9.210;2023-04-24T02:47:12;13.90;59.40
32139;DHT22;18644;48.700;9.210;2023-04-24T02:49:40;13.90;59.40
32139;DHT22;18644;48.700;9.210;2023-04-24T02:52:07;13.90;59.60
32139;DHT22;18644;48.700;9.210;2023-04-24T02:54:34;13.90;59.60
32139;DHT22;18644;48.700;9.210;2023-04-24T02:57:00;13.90;59.60
32139;DHT22;18644;48.700;9.210;2023-04-24T02:59:28;13.90;59.60
32139;DHT22;18644;48.700;9.210;2023-04-24T03:01:55;13.90;59.60
32139;DHT22;18644;48.700;9.210;2023-04-24T03:04:22;13.90;59.60
32139;DHT22;18644;48.700;9.210;2023-04-24T03:06:50;13.90;59.60
32139;DHT22;18644;48.700;9.210;2023-04-24T03:09:18;13.90;59.60
32139;DHT22;18644;48.700;9.210;2023-04-24T03:11:45;13.90;59.70
32139;DHT22;18644;48.700;9.210;2023-04-24T03:14:12;13.90;59.70
32139;DHT22;18644;48.700;9.210;2023-04-24T03:16:38;13.90;59.80
32139;DHT22;18644;48.700;9.210;2023-04-24T03:19:05;13.90;59.80
32139;DHT22;18644;48.700;9.210;2023-04-24T03:21:32;13.90;59.80
32139;DHT22;18644;48.700;9.210;2023-04-24T03:24:02;13.90;59.90
32139;DHT22;18644;48.700;9.210;2023-04-24T03:26:29;13.90;59.90
32139;DHT22;18644;48.700;9.210;2023-04-24T03:28:56;13.90;59.90
32139;DHT22;18644;48.700;9.210;2023-04-24T03:31:23;13.90;59.80
32139;DHT22;18644;48.700;9.210;2023-04-24T03:33:50;13.90;59.90
32139;DHT22;18644;48.700;9.210;2023-04-24T03:36:16;13.80;59.80
32139;DHT22;18644;48.700;9.210;2023-04-24T03:38:44;13.80;59.80
32139;DHT22;18644;48.700;9.210;2023-04-24T03:41:12;13.80;59.90
32139;DHT22;18644;48.700;9.210;2023-04-24T03:43:39;13.80;59.90
32139;DHT22;18644;48.700;9.210;2023-04-24T03:46:06;13.80;60.00
32139;DHT22;18644;48.700;9.210;2023-04-24T03:48:34;13.70;60.00
32139;DHT22;18644;48.700;9.210;2023-04-24T03:51:01;13.70;60.10
32139;DHT22;18644;48.700;9.210;2023-04-24T03:53:28;13.70;60.10
32139;DHT22;18644;48.700;9.210;2023-04-24T03:55:55;13.60;60.00
32139;DHT22;18644;48.700;9.210;2023-04-24T03:58:23;13.60;60.00
32139;DHT22;18644;48.700;9.210;2023-04-24T04:00:50;13.60;60.10
32139;DHT22;18644;48.700;9.210;2023-04-24T04:03:17;13.60;60.20
32139;DHT22;18644;48.700;9.210;2023-04-24T04:05:44;13.50;60.10
32139;DHT22;18644;48.700;9.210;2023-04-24T04:08:11;13.50;60.20
32139;DHT22;18644;48.700;9.210;2023-04-24T04:10:37;13.50;60.30
32139;DHT22;18644;48.700;9.210;2023-04-24T04:13:04;13.40;60.50
32139;DHT22;18644;48.700;9.210;2023-04-24T04:15:33;13.40;60.70
32139;DHT22;18644;48.700;9.210;2023-04-24T04:18:01;13.40;60.80
32139;DHT22;18644;48.700;9.210;2023-04-24T04:20:28;13.40;61.10
32139;DHT22;18644;48.700;9.210;2023-04-24T04:22:54;13.40;61.10
32139;DHT22;18644;48.700;9.210;2023-04-24T04:25:21;13.40;61.20
32139;DHT22;18644;48.700;9.210;2023-04-24T04:27:48;13.40;61.40
32139;DHT22;18644;48.700;9.210;2023-04-24T04:30:16;13.40;61.50
32139;DHT22;18644;48.700;9.210;2023-04-24T04:32:45;13.40;61.50
32139;DHT22;18644;48.700;9.210;2023-04-24T04:35:12;13.40;61.70
32139;DHT22;18644;48.700;9.210;2023-04-24T04:37:38;13.40;61.60
32139;DHT22;18644;48.700;9.210;2023-04-24T04:40:07;13.40;61.60
32139;DHT22;18644;48.700;9.210;2023-04-24T04:42:37;13.40;61.60
32139;DHT22;18644;48.700;9.210;2023-04-24T04:45:08;13.40;61.80
32139;DHT22;18644;48.700;9.210;2023-04-24T04:47:38;13.40;60.80
32139;DHT22;18644;48.700;9.210;2023-04-24T04:50:09;13.30;60.20
32139;DHT22;18644;48.700;9.210;2023-04-24T04:52:37;13.20;60.20
32139;DHT22;18644;48.700;9.210;2023-04-24T04:55:05;13.20;60.20
32139;DHT22;18644;48.700;9.210;2023-04-24T04:57:33;13.00;60.30
32139;DHT22;18644;48.700;9.210;2023-04-24T05:00:00;13.00;60.50
32139;DHT22;18644;48.700;9.210;2023-04-24T05:02:27;12.90;60.60
32139;DHT22;18644;48.700;9.210;2023-04-24T05:04:55;12.90;60.60
32139;DHT22;18644;48.700;9.210;2023-04-24T05:07:23;12.90;60.80
32139;DHT22;18644;48.700;9.210;2023-04-24T05:09:50;12.80;60.90
32139;DHT22;18644;48.700;9.210;2023-04-24T05:12:17;12.80;60.90
32139;DHT22;18644;48.700;9.210;2023-04-24T05:14:44;12.80;60.90
32139;DHT22;18644;48.700;9.210;2023-04-24T05:17:11;12.70;61.00
32139;DHT22;18644;48.700;9.210;2023-04-24T05:19:38;12.70;61.10
32139;DHT22;18644;48.700;9.210;2023-04-24T05:22:05;12.70;61.20
32139;DHT22;18644;48.700;9.210;2023-04-24T05:24:34;12.70;61.30
32139;DHT22;18644;48.700;9.210;2023-04-24T05:27:02;12.70;61.20
32139;DHT22;18644;48.700;9.210;2023-04-24T05:29:30;12.70;61.20
32139;DHT22;18644;48.700;9.210;2023-04-24T05:31:57;12.70;61.20
32139;DHT22;18644;48.700;9.210;2023-04-24T05:34:24;12.70;61.30
32139;DHT22;18644;48.700;9.210;2023-04-24T05:36:50;12.60;61.30
32139;DHT22;18644;48.700;9.210;2023-04-24T05:39:18;12.70;61.40
32139;DHT22;18644;48.700;9.210;2023-04-24T05:41:47;12.70;61.50
32139;DHT22;18644;48.700;9.210;2023-04-24T05:44:14;12.70;61.70
32139;DHT22;18644;48.700;9.210;2023-04-24T05:46:40;12.70;61.80
32139;DHT22;18644;48.700;9.210;2023-04-24T05:49:07;12.70;61.80
32139;DHT22;18644;48.700;9.210;2023-04-24T05:51:34;12.70;61.80
32139;DHT22;18644;48.700;9.210;2023-04-24T05:54:01;12.70;61.70
32139;DHT22;18644;48.700;9.210;2023-04-24T05:56:28;12.80;61.80
32139;DHT22;18644;48.700;9.210;2023-04-24T05:58:57;12.80;61.90
32139;DHT22;18644;48.700;9.210;2023-04-24T06:01:24;12.80;61.90
32139;DHT22;18644;48.700;9.210;2023-04-24T06:03:52;12.80;61.90
32139;DHT22;18644;48.700;9.210;2023-04-24T06:06:19;12.80;61.90
32139;DHT22;18644;48.700;9.210;2023-04-24T06:08:46;12.80;61.90
32139;DHT22;18644;48.700;9.210;2023-04-24T06:11:13;12.90;61.90
32139;DHT22;18644;48.700;9.210;2023-04-24T06:13:39;12.90;62.00
32139;DHT22;18644;48.700;9.210;2023-04-24T06:16:08;13.00;61.90
32139;DHT22;18644;48.700;9.210;2023-04-24T06:18:35;13.00;61.60
32139;DHT22;18644;48.700;9.210;2023-04-24T06:21:02;13.00;61.40
32139;DHT22;18644;48.700;9.210;2023-04-24T06:23:29;13.00;61.30
32139;DHT22;18644;48.700;9.210;2023-04-24T06:25:57;13.10;61.40
32139;DHT22;18644;48.700;9.210;2023-04-24T06:28:25;13.10;61.20
32139;DHT22;18644;48.700;9.210;2023-04-24T06:30:52;13.10;61.40
32139;DHT22;18644;48.700;9.210;2023-04-24T06:33:20;13.20;61.80
32139;DHT22;18644;48.700;9.210;2023-04-24T06:35:47;13.30;62.20
32139;DHT22;18644;48.700;9.210;2023-04-24T06:38:14;13.40;62.50
32139;DHT22;18644;48.700;9.210;2023-04-24T06:40:41;13.50;62.60
32139;DHT22;18644;48.700;9.210;2023-04-24T06:43:08;13.70;62.40
32139;DHT22;18644;48.700;9.210;2023-04-24T06:45:36;13.80;62.70
32139;DHT22;18644;48.700;9.210;2023-04-24T06:48:04;14.00;63.00
32139;DHT22;18644;48.700;9.210;2023-04-24T06:50:32;14.20;63.10
32139;DHT22;18644;48.700;9.210;2023-04-24T06:52:59;14.40;63.40
32139;DHT22;18644;48.700;9.210;2023-04-24T06:55:26;14.60;63.10
32139;DHT22;18644;48.700;9.210;2023-04-24T06:57:53;14.80;62.50
32139;DHT22;18644;48.700;9.210;2023-04-24T07:00:20;14.90;61.90
32139;DHT22;18644;48.700;9.210;2023-04-24T07:02:49;15.10;61.40
32139;DHT22;18644;48.700;9.210;2023-04-24T07:05:16;15.20;61.10
32139;DHT22;18644;48.700;9.210;2023-04-24T07:07:46;15.30;60.70
32139;DHT22;18644;48.700;9.210;2023-04-24T07:10:14;15.40;60.30
32139;DHT22;18644;48.700;9.210;2023-04-24T07:12:41;15.50;60.10
32139;DHT22;18644;48.700;9.210;2023-04-24T07:15:09;15.50;59.80
32139;DHT22;18644;48.700;9.210;2023-04-24T07:17:37;15.60;59.00
32139;DHT22;18644;48.700;9.210;2023-04-24T07:20:09;15.60;58.30
32139;DHT22;18644;48.700;9.210;2023-04-24T07:22:37;15.50;57.60
32139;DHT22;18644;48.700;9.210;2023-04-24T07:25:07;15.40;57.20
32139;DHT22;18644;48.700;9.210;2023-04-24T07:27:35;15.30;56.90
32139;DHT22;18644;48.700;9.210;2023-04-24T07:30:02;15.20;56.60
32139;DHT22;18644;48.700;9.210;2023-04-24T07:32:30;15.00;56.80
32139;DHT22;18644;48.700;9.210;2023-04-24T07:34:57;14.80;56.10
32139;DHT22;18644;48.700;9.210;2023-04-24T07:37:24;14.70;56.50
32139;DHT22;18644;48.700;9.210;2023-04-24T07:39:51;14.50;56.80
32139;DHT22;18644;48.700;9.210;2023-04-24T07:42:19;14.30;56.90
32139;DHT22;18644;48.700;9.210;2023-04-24T07:44:46;14.30;57.20
32139;DHT22;18644;48.700;9.210;2023-04-24T07:47:13;14.20;57.60
32139;DHT22;18644;48.700;9.210;2023-04-24T07:49:41;14.20;58.30
32139;DHT22;18644;48.700;9.210;2023-04-24T07:52:08;14.20;58.90
32139;DHT22;18644;48.700;9.210;2023-04-24T07:54:35;14.30;59.20
32139;DHT22;18644;48.700;9.210;2023-04-24T07:57:03;14.50;59.20
32139;DHT22;18644;48.700;9.210;2023-04-24T07:59:33;14.60;59.40
32139;DHT22;18644;48.700;9.210;2023-04-24T08:01:59;14.80;59.80
32139;DHT22;18644;48.700;9.210;2023-04-24T08:04:27;14.90;59.90
32139;DHT22;18644;48.700;9.210;2023-04-24T08:06:54;15.20;59.60
32139;DHT22;18644;48.700;9.210;2023-04-24T08:09:20;15.30;59.00
32139;DHT22;18644;48.700;9.210;2023-04-24T08:11:47;15.40;58.00
32139;DHT22;18644;48.700;9.210;2023-04-24T08:14:14;15.50;57.50
32139;DHT22;18644;48.700;9.210;2023-04-24T08:16:42;15.60;56.60
32139;DHT22;18644;48.700;9.210;2023-04-24T08:19:09;15.60;55.90
32139;DHT22;18644;48.700;9.210;2023-04-24T08:21:36;15.60;55.60
32139;DHT22;18644;48.700;9.210;2023-04-24T08:24:03;15.60;55.60
32139;DHT22;18644;48.700;9.210;2023-04-24T08:26:33;15.50;55.20
32139;DHT22;18644;48.700;9.210;2023-04-24T08:29:00;15.50;55.00
32139;DHT22;18644;48.700;9.210;2023-04-24T08:31:26;15.40;54.70
32139;DHT22;18644;48.700;9.210;2023-04-24T08:33:55;15.40;54.40
32139;DHT22;18644;48.700;9.210;2023-04-24T08:36:21;15.30;54.20
32139;DHT22;18644;48.700;9.210;2023-04-24T08:38:49;15.20;54.00
32139;DHT22;18644;48.700;9.210;2023-04-24T08:41:15;15.20;54.60
32139;DHT22;18644;48.700;9.210;2023-04-24T08:43:45;15.20;55.20
32139;DHT22;18644;48.700;9.210;2023-04-24T08:46:13;15.20;55.50
32139;DHT22;18644;48.700;9.210;2023-04-24T08:48:42;15.20;55.50
32139;DHT22;18644;48.700;9.210;2023-04-24T08:51:10;15.30;55.20
32139;DHT22;18644;48.700;9.210;2023-04-24T08:53:38;15.30;55.00
32139;DHT22;18644;48.700;9.210;2023-04-24T08:56:07;15.40;54.30
32139;DHT22;18644;48.700;9.210;2023-04-24T08:58:35;15.50;53.50
32139;DHT22;18644;48.700;9.210;2023-04-24T09:01:02;15.50;52.90
32139;DHT22;18644;48.700;9.210;2023-04-24T09:03:30;15.50;52.90
32139;DHT22;18644;48.700;9.210;2023-04-24T09:05:58;15.40;52.40
32139;DHT22;18644;48.700;9.210;2023-04-24T09:08:28;15.30;52.20
32139;DHT22;18644;48.700;9.210;2023-04-24T09:10:56;15.30;52.80
32139;DHT22;18644;48.700;9.210;2023-04-24T09:13:24;15.30;52.90
32139;DHT22;18644;48.700;9.210;2023-04-24T09:15:51;15.40;53.00
32139;DHT22;18644;48.700;9.210;2023-04-24T09:18:19;15.40;52.90
32139;DHT22;18644;48.700;9.210;2023-04-24T09:21:06;15.50;52.80
32139;DHT22;18644;48.700;9.210;2023-04-24T09:23:36;15.60;52.20
32139;DHT22;18644;48.700;9.210;2023-04-24T09:26:03;15.70;53.00
32139;DHT22;18644;48.700;9.210;2023-04-24T09:28:34;15.80;53.00
32139;DHT22;18644;48.700;9.210;2023-04-24T09:31:06;15.90;51.90
32139;DHT22;18644;48.700;9.210;2023-04-24T09:33:35;16.00;51.20
32139;DHT22;18644;48.700;9.210;2023-04-24T09:36:02;16.00;51.20
32139;DHT22;18644;48.700;9.210;2023-04-24T09:38:33;16.00;51.30
32139;DHT22;18644;48.700;9.210;2023-04-24T09:41:04;16.20;51.60
32139;DHT22;18644;48.700;9.210;2023-04-24T09:43:32;16.30;51.50
32139;DHT22;18644;48.700;9.210;2023-04-24T09:46:05;16.40;51.20
32139;DHT22;18644;48.700;9.210;2023-04-24T09:48:33;16.60;49.90
32139;DHT22;18644;48.700;9.210;2023-04-24T09:51:01;16.70;49.60
32139;DHT22;18644;48.700;9.210;2023-04-24T09:53:30;16.80;48.90
32139;DHT22;18644;48.700;9.210;2023-04-24T09:56:02;16.80;48.60
32139;DHT22;18644;48.700;9.210;2023-04-24T09:58:29;16.90;48.00
32139;DHT22;18644;48.700;9.210;2023-04-24T10:00:56;16.90;48.80
32139;DHT22;18644;48.700;9.210;2023-04-24T10:03:27;17.00;48.50
32139;DHT22;18644;48.700;9.210;2023-04-24T10:05:58;17.20;48.50
32139;DHT22;18644;48.700;9.210;2023-04-24T10:08:26;17.30;47.70
32139;DHT22;18644;48.700;9.210;2023-04-24T10:11:01;17.40;47.20
32139;DHT22;18644;48.700;9.210;2023-04-24T10:13:28;17.30;46.10
32139;DHT22;18644;48.700;9.210;2023-04-24T10:15:56;17.20;45.00
32139;DHT22;18644;48.700;9.210;2023-04-24T10:18:26;17.00;45.10
32139;DHT22;18644;48.700;9.210;2023-04-24T10:20:53;16.80;45.20
32139;DHT22;18644;48.700;9.210;2023-04-24T10:23:21;16.70;45.60
32139;DHT22;18644;48.700;9.210;2023-04-24T10:25:49;16.70;45.90
32139;DHT22;18644;48.700;9.210;2023-04-24T10:28:19;16.70;46.40
32139;DHT22;18644;48.700;9.210;2023-04-24T10:30:47;16.70;46.60
32139;DHT22;18644;48.700;9.210;2023-04-24T10:33:16;16.70;46.40
32139;DHT22;18644;48.700;9.210;2023-04-24T10:35:45;16.80;47.40
32139;DHT22;18644;48.700;9.210;2023-04-24T10:38:18;16.90;47.80
32139;DHT22;18644;48.700;9.210;2023-04-24T10:40:49;17.00;47.50
32139;DHT22;18644;48.700;9.210;2023-04-24T10:43:18;17.20;47.10
32139;DHT22;18644;48.700;9.210;2023-04-24T10:46:00;17.20;46.50
32139;DHT22;18644;48.700;9.210;2023-04-24T10:48:28;17.20;45.90
32139;DHT22;18644;48.700;9.210;2023-04-24T10:50:55;17.10;45.50
32139;DHT22;18644;48.700;9.210;2023-04-24T10:53:27;17.00;45.10
32139;DHT22;18644;48.700;9.210;2023-04-24T10:55:58;16.90;45.00
32139;DHT22;18644;48.700;9.210;2023-04-24T10:58:38;16.70;45.40
32139;DHT22;18644;48.700;9.210;2023-04-24T11:01:06;16.60;45.40
32139;DHT22;18644;48.700;9.210;2023-04-24T11:03:34;16.60;46.10
32139;DHT22;18644;48.700;9.210;2023-04-24T11:06:03;16.50;46.50
32139;DHT22;18644;48.700;9.210;2023-04-24T11:08:38;16.50;46.10
32139;DHT22;18644;48.700;9.210;2023-04-24T11:11:10;16.40;45.50
32139;DHT22;18644;48.700;9.210;2023-04-24T11:14:04;16.40;45.60
32139;DHT22;18644;48.700;9.210;2023-04-24T11:16:42;16.30;45.70
32139;DHT22;18644;48.700;9.210;2023-04-24T11:19:17;16.20;46.30
32139;DHT22;18644;48.700;9.210;2023-04-24T11:21:47;16.10;45.90
32139;DHT22;18644;48.700;9.210;2023-04-24T11:24:32;16.10;46.30
32139;DHT22;18644;48.700;9.210;2023-04-24T11:27:12;16.00;45.80
32139;DHT22;18644;48.700;9.210;2023-04-24T11:29:46;15.90;45.90
32139;DHT22;18644;48.700;9.210;2023-04-24T11:32:27;15.80;45.70
32139;DHT22;18644;48.700;9.210;2023-04-24T11:34:56;15.80;46.20
32139;DHT22;18644;48.700;9.210;2023-04-24T11:37:26;15.70;46.60
32139;DHT22;18644;48.700;9.210;2023-04-24T11:39:55;15.70;46.70
32139;DHT22;18644;48.700;9.210;2023-04-24T11:42:23;15.60;46.90
32139;DHT22;18644;48.700;9.210;2023-04-24T11:44:54;15.70;47.40
32139;DHT22;18644;48.700;9.210;2023-04-24T11:47:28;15.70;47.70
32139;DHT22;18644;48.700;9.210;2023-04-24T11:49:55;15.70;47.50
32139;DHT22;18644;48.700;9.210;2023-04-24T11:52:22;15.70;47.00
32139;DHT22;18644;48.700;9.210;2023-04-24T11:54:50;15.60;46.80
32139;DHT22;18644;48.700;9.210;2023-04-24T11:57:19;15.50;46.80
32139;DHT22;18644;48.700;9.210;2023-04-24T11:59:46;15.40;46.90
32139;DHT22;18644;48.700;9.210;2023-04-24T12:02:22;15.40;47.00
32139;DHT22;18644;48.700;9.210;2023-04-24T12:04:49;15.40;47.30
32139;DHT22;18644;48.700;9.210;2023-04-24T12:07:17;15.40;47.50
32139;DHT22;18644;48.700;9.210;2023-04-24T12:09:45;15.40;48.00
32139;DHT22;18644;48.700;9.210;2023-04-24T12:12:14;15.40;48.40
32139;DHT22;18644;48.700;9.210;2023-04-24T12:14:47;15.60;48.70
32139;DHT22;18644;48.700;9.210;2023-04-24T12:17:15;15.70;48.70
32139;DHT22;18644;48.700;9.210;2023-04-24T12:19:47;15.80;48.20
32139;DHT22;18644;48.700;9.210;2023-04-24T12:22:16;15.90;47.30
32139;DHT22;18644;48.700;9.210;2023-04-24T12:24:56;15.80;47.20
32139;DHT22;18644;48.700;9.210;2023-04-24T12:27:24;15.80;47.20
32139;DHT22;18644;48.700;9.210;2023-04-24T12:29:52;15.80;47.30
32139;DHT22;18644;48.700;9.210;2023-04-24T12:32:20;15.70;47.20
32139;DHT22;18644;48.700;9.210;2023-04-24T12:34:49;15.70;47.40
32139;DHT22;18644;48.700;9.210;2023-04-24T12:37:16;15.60;47.70
32139;DHT22;18644;48.700;9.210;2023-04-24T12:39:57;15.60;48.30
32139;DHT22;18644;48.700;9.210;2023-04-24T12:42:26;15.60;48.50
32139;DHT22;18644;48.700;9.210;2023-04-24T12:44:56;15.70;48.20
32139;DHT22;18644;48.700;9.210;2023-04-24T12:47:25;15.70;48.40
32139;DHT22;18644;48.700;9.210;2023-04-24T12:49:53;15.80;48.20
32139;DHT22;18644;48.700;9.210;2023-04-24T12:52:21;15.80;48.20
32139;DHT22;18644;48.700;9.210;2023-04-24T12:54:49;15.80;48.00
32139;DHT22;18644;48.700;9.210;2023-04-24T12:57:16;15.80;47.60
32139;DHT22;18644;48.700;9.210;2023-04-24T12:59:43;15.70;47.40
32139;DHT22;18644;48.700;9.210;2023-04-24T13:02:10;15.70;47.70
32139;DHT22;18644;48.700;9.210;2023-04-24T13:04:37;15.60;47.90
32139;DHT22;18644;48.700;9.210;2023-04-24T13:07:06;15.60;48.20
32139;DHT22;18644;48.700;9.210;2023-04-24T13:09:34;15.60;48.50
32139;DHT22;18644;48.700;9.210;2023-04-24T13:12:02;15.60;48.50
32139;DHT22;18644;48.700;9.210;2023-04-24T13:14:30;15.60;48.50
32139;DHT22;18644;48.700;9.210;2023-04-24T13:16:57;15.50;48.30
32139;DHT22;18644;48.700;9.210;2023-04-24T13:19:24;15.50;48.40
32139;DHT22;18644;48.700;9.210;2023-04-24T13:21:52;15.50;48.20
32139;DHT22;18644;48.700;9.210;2023-04-24T13:24:22;15.40;48.20
32139;DHT22;18644;48.700;9.210;2023-04-24T13:26:50;15.40;48.30
32139;DHT22;18644;48.700;9.210;2023-04-24T13:29:17;15.30;48.40
32139;DHT22;18644;48.700;9.210;2023-04-24T13:31:44;15.30;48.70
32139;DHT22;18644;48.700;9.210;2023-04-24T13:34:11;15.30;49.60
32139;DHT22;18644;48.700;9.210;2023-04-24T13:36:38;15.40;50.30
32139;DHT22;18644;48.700;9.210;2023-04-24T13:39:05;15.70;50.80
32139;DHT22;18644;48.700;9.210;2023-04-24T13:41:34;15.80;50.00
32139;DHT22;18644;48.700;9.210;2023-04-24T13:44:01;16.00;49.30
32139;DHT22;18644;48.700;9.210;2023-04-24T13:46:28;16.10;48.40
32139;DHT22;18644;48.700;9.210;2023-04-24T13:48:55;16.10;47.70
32139;DHT22;18644;48.700;9.210;2023-04-24T13:51:23;16.00;47.10
32139;DHT22;18644;48.700;9.210;2023-04-24T13:53:52;15.90;47.00
32139;DHT22;18644;48.700;9.210;2023-04-24T13:56:22;15.80;47.10
32139;DHT22;18644;48.700;9.210;2023-04-24T13:58:50;15.70;47.20
32139;DHT22;18644;48.700;9.210;2023-04-24T14:01:17;15.60;47.20
32139;DHT22;18644;48.700;9.210;2023-04-24T14:03:44;15.40;47.40
32139;DHT22;18644;48.700;9.210;2023-04-24T14:06:11;15.30;48.00
32139;DHT22;18644;48.700;9.210;2023-04-24T14:08:38;15.30;48.50
32139;DHT22;18644;48.700;9.210;2023-04-24T14:11:04;15.30;48.60
32139;DHT22;18644;48.700;9.210;2023-04-24T14:13:31;15.30;48.90
32139;DHT22;18644;48.700;9.210;2023-04-24T14:16:00;15.30;49.20
32139;DHT22;18644;48.700;9.210;2023-04-24T14:18:26;15.40;49.70
32139;DHT22;18644;48.700;9.210;2023-04-24T14:20:54;15.50;49.10
32139;DHT22;18644;48.700;9.210;2023-04-24T14:23:21;15.60;48.80
32139;DHT22;18644;48.700;9.210;2023-04-24T14:25:48;15.50;48.50
32139;DHT22;18644;48.700;9.210;2023-04-24T14:28:17;15.60;49.10
32139;DHT22;18644;48.700;9.210;2023-04-24T14:30:45;15.60;48.60
32139;DHT22;18644;48.700;9.210;2023-04-24T14:33:16;15.60;48.50
32139;DHT22;18644;48.700;9.210;2023-04-24T14:35:45;15.60;48.80
32139;DHT22;18644;48.700;9.210;2023-04-24T14:38:12;15.40;48.90
32139;DHT22;18644;48.700;9.210;2023-04-24T14:40:40;15.30;49.20
32139;DHT22;18644;48.700;9.210;2023-04-24T14:43:07;15.10;50.00
32139;DHT22;18644;48.700;9.210;2023-04-24T14:45:36;15.00;51.40
32139;DHT22;18644;48.700;9.210;2023-04-24T14:48:03;15.00;52.00
32139;DHT22;18644;48.700;9.210;2023-04-24T14:50:33;15.10;52.60
32139;DHT22;18644;48.700;9.210;2023-04-24T14:53:00;15.20;53.30
32139;DHT22;18644;48.700;9.210;2023-04-24T14:55:27;15.40;53.70
32139;DHT22;18644;48.700;9.210;2023-04-24T14:57:55;15.50;53.70
32139;DHT22;18644;48.700;9.210;2023-04-24T15:00:22;15.70;52.90
32139;DHT22;18644;48.700;9.210;2023-04-24T15:02:49;15.80;52.10
32139;DHT22;18644;48.700;9.210;2023-04-24T15:05:16;15.80;52.00
32139;DHT22;18644;48.700;9.210;2023-04-24T15:07:45;15.90;52.20
32139;DHT22;18644;48.700;9.210;2023-04-24T15:10:11;16.10;52.00
32139;DHT22;18644;48.700;9.210;2023-04-24T15:12:38;16.10;51.40
32139;DHT22;18644;48.700;9.210;2023-04-24T15:15:07;16.10;50.90
32139;DHT22;18644;48.700;9.210;2023-04-24T15:17:35;16.20;50.70
32139;DHT22;18644;48.700;9.210;2023-04-24T15:20:02;16.10;50.50
32139;DHT22;18644;48.700;9.210;2023-04-24T15:22:30;16.10;50.30
32139;DHT22;18644;48.700;9.210;2023-04-24T15:24:58;16.10;50.30
32139;DHT22;18644;48.700;9.210;2023-04-24T15:27:26;16.10;49.40
32139;DHT22;18644;48.700;9.210;2023-04-24T15:29:53;16.00;49.00
32139;DHT22;18644;48.700;9.210;2023-04-24T15:32:20;15.90;48.80
32139;DHT22;18644;48.700;9.210;2023-04-24T15:34:47;15.90;48.80
32139;DHT22;18644;48.700;9.210;2023-04-24T15:37:14;15.80;48.60
32139;DHT22;18644;48.700;9.210;2023-04-24T15:39:41;15.80;48.60
32139;DHT22;18644;48.700;9.210;2023-04-24T15:42:12;15.80;48.60